Time;durP1;ratioP1;P1;durP2;ratioP2;P2;SDS_P1;SDS_P2;PMS_P1;PMS_P2;Temp;Humidity;BMP_temperature;BMP_pressure;BME280_temperature;BME280_humidity;BME280_pressure;Samples;Min_cycle;Max_cycle;Signal;HPM_P1;HPM_P2
2022/05/22 00:01:26;;;;;;;3.80;0.85;;;15.30;99.90;;;;;;4843467;29;20077;-84
2022/05/22 00:03:52;;;;;;;1.52;0.60;;;15.20;99.90;;;;;;4843386;29;20584;-84
2022/05/22 00:06:20;;;;;;;1.80;0.82;;;15.20;99.90;;;;;;4840053;29;20075;-85
2022/05/22 00:08:46;;;;;;;2.20;0.73;;;15.10;99.90;;;;;;4837708;29;20038;-83
2022/05/22 00:11:12;;;;;;;3.28;0.75;;;15.00;99.90;;;;;;4832631;29;20041;-85
2022/05/22 00:13:37;;;;;;;2.33;1.00;;;15.00;99.90;;;;;;4823750;29;20484;-84
2022/05/22 00:18:47;;;;;;;1.95;0.80;;;15.00;99.90;;;;;;4836891;29;20029;-84
2022/05/22 00:21:13;;;;;;;2.55;0.80;;;15.00;99.90;;;;;;4836210;29;20125;-84
2022/05/22 00:23:39;;;;;;;1.90;0.80;;;14.90;99.90;;;;;;4820930;29;20400;-84
2022/05/22 00:26:04;;;;;;;3.60;1.00;;;15.00;99.90;;;;;;4838396;29;20031;-84
2022/05/22 00:28:30;;;;;;;6.35;1.10;;;15.00;99.90;;;;;;4824823;29;20038;-85
2022/05/22 00:30:55;;;;;;;2.60;0.80;;;15.00;99.90;;;;;;4843114;29;20030;-85
2022/05/22 00:33:21;;;;;;;3.45;1.30;;;15.00;99.90;;;;;;4838368;29;20066;-85
2022/05/22 00:35:47;;;;;;;4.72;0.80;;;15.00;99.90;;;;;;4838660;29;20031;-84
2022/05/22 00:38:13;;;;;;;1.70;0.90;;;15.00;99.90;;;;;;4823295;29;20441;-85
2022/05/22 00:40:38;;;;;;;1.83;0.77;;;14.90;99.90;;;;;;4838860;29;20022;-84
2022/05/22 00:43:04;;;;;;;2.30;0.88;;;14.90;99.90;;;;;;4827636;29;20551;-84
2022/05/22 00:45:30;;;;;;;2.45;0.80;;;14.80;99.90;;;;;;4838979;29;20488;-85
2022/05/22 00:47:56;;;;;;;1.92;0.98;;;14.70;99.90;;;;;;4837246;29;20408;-84
2022/05/22 00:50:22;;;;;;;2.35;0.93;;;14.80;99.90;;;;;;4834475;29;20030;-84
2022/05/22 00:52:57;;;;;;;2.08;1.00;;;14.70;99.90;;;;;;4823901;29;20030;-85
2022/05/22 00:55:28;;;;;;;4.43;1.20;;;14.70;99.90;;;;;;4823436;29;20117;-85
2022/05/22 00:57:58;;;;;;;3.05;1.20;;;14.60;99.90;;;;;;4824475;29;20034;-86
2022/05/22 01:00:28;;;;;;;2.53;1.13;;;14.60;99.90;;;;;;4839466;29;20030;-84
2022/05/22 01:05:44;;;;;;;3.75;1.23;;;14.60;99.90;;;;;;4824239;29;20518;-85
2022/05/22 01:08:10;;;;;;;3.05;1.17;;;14.60;99.90;;;;;;4823865;29;20574;-85
2022/05/22 01:10:42;;;;;;;2.28;1.13;;;14.50;99.90;;;;;;4842243;29;20109;-85
2022/05/22 01:13:08;;;;;;;2.78;1.20;;;14.50;99.90;;;;;;4841434;29;20030;-84
2022/05/22 01:15:35;;;;;;;1.90;1.00;;;14.40;99.90;;;;;;4827967;29;20552;-84
2022/05/22 01:18:00;;;;;;;2.63;1.08;;;14.30;99.90;;;;;;4838437;29;20084;-85
2022/05/22 01:20:29;;;;;;;3.15;0.93;;;14.30;99.90;;;;;;4828288;29;20034;-85
2022/05/22 01:22:54;;;;;;;3.28;1.08;;;14.20;99.90;;;;;;4826746;29;20077;-85
2022/05/22 01:25:20;;;;;;;2.38;0.95;;;14.20;99.90;;;;;;4842938;29;20530;-84
2022/05/22 01:27:46;;;;;;;2.58;1.30;;;14.20;99.90;;;;;;4841426;29;20074;-86
2022/05/22 01:30:16;;;;;;;4.13;1.42;;;14.20;99.90;;;;;;4843151;29;20491;-85
2022/05/22 01:32:44;;;;;;;2.58;1.13;;;14.10;99.90;;;;;;4838283;29;20030;-85
2022/05/22 01:35:13;;;;;;;4.15;1.52;;;14.20;99.90;;;;;;4838946;29;20069;-85
2022/05/22 01:37:39;;;;;;;2.63;1.00;;;14.20;99.90;;;;;;4838575;29;20118;-86
2022/05/22 01:40:08;;;;;;;2.30;0.95;;;14.10;99.90;;;;;;4838517;29;20121;-84
2022/05/22 01:42:33;;;;;;;3.28;1.42;;;14.00;99.90;;;;;;4824131;29;20174;-84
2022/05/22 01:44:59;;;;;;;2.63;1.15;;;14.10;99.90;;;;;;4822928;29;20034;-84
2022/05/22 01:47:25;;;;;;;2.60;1.30;;;14.00;99.90;;;;;;4822911;29;20552;-84
2022/05/22 01:49:50;;;;;;;2.88;1.20;;;14.00;99.90;;;;;;4822924;29;20045;-85
2022/05/22 01:52:16;;;;;;;2.67;1.50;;;13.90;99.90;;;;;;4833602;29;20179;-84
2022/05/22 01:54:41;;;;;;;2.10;1.08;;;13.90;99.90;;;;;;4824906;29;20046;-85
2022/05/22 01:57:07;;;;;;;2.85;1.00;;;13.80;99.90;;;;;;4838430;29;20038;-84
2022/05/22 01:59:33;;;;;;;3.55;1.25;;;13.60;99.90;;;;;;4839445;29;20042;-85
2022/05/22 02:01:58;;;;;;;2.67;1.00;;;13.60;99.90;;;;;;4841581;29;20474;-85
2022/05/22 02:04:24;;;;;;;2.90;1.45;;;13.60;99.90;;;;;;4839670;29;20041;-85
2022/05/22 02:09:34;;;;;;;2.75;1.27;;;13.50;99.90;;;;;;4843144;29;20075;-84
2022/05/22 02:12:00;;;;;;;3.15;1.10;;;13.50;99.90;;;;;;4840687;29;20038;-84
2022/05/22 02:14:26;;;;;;;2.25;1.08;;;13.50;99.90;;;;;;4841473;29;20038;-85
2022/05/22 02:16:51;;;;;;;2.88;1.23;;;13.50;99.90;;;;;;4841716;29;20038;-85
2022/05/22 02:19:17;;;;;;;2.42;1.25;;;13.40;99.90;;;;;;4842393;29;20038;-86
2022/05/22 02:21:45;;;;;;;2.90;1.05;;;13.40;99.90;;;;;;4836958;29;20093;-85
2022/05/22 02:24:11;;;;;;;3.70;1.30;;;13.30;99.90;;;;;;4823468;29;20034;-85
2022/05/22 02:26:37;;;;;;;4.43;1.42;;;13.40;99.90;;;;;;4822319;29;20030;-85
2022/05/22 02:29:03;;;;;;;3.15;1.38;;;13.30;99.90;;;;;;4822855;29;20033;-84
2022/05/22 02:31:28;;;;;;;2.65;1.05;;;13.30;99.90;;;;;;4822028;29;20038;-84
2022/05/22 02:33:54;;;;;;;4.82;1.50;;;13.30;99.90;;;;;;4823540;29;20041;-85
2022/05/22 02:36:20;;;;;;;4.03;1.33;;;13.40;99.90;;;;;;4823090;29;20030;-85
2022/05/22 02:38:47;;;;;;;2.95;1.10;;;13.40;99.90;;;;;;4837726;29;20033;-85
2022/05/22 02:41:16;;;;;;;3.42;1.23;;;13.40;99.90;;;;;;4836809;29;20113;-85
2022/05/22 02:43:42;;;;;;;3.17;1.23;;;13.30;99.90;;;;;;4837123;29;20571;-86
2022/05/22 02:46:12;;;;;;;2.63;1.20;;;13.30;99.90;;;;;;4837310;29;20070;-85
2022/05/22 02:48:39;;;;;;;2.00;1.15;;;13.30;99.90;;;;;;4832642;29;20022;-85
2022/05/22 02:51:05;;;;;;;3.58;1.15;;;13.20;99.90;;;;;;4837267;29;20044;-85
2022/05/22 02:53:31;;;;;;;2.20;1.00;;;13.30;99.90;;;;;;4837249;29;20034;-85
2022/05/22 02:56:05;;;;;;;2.42;0.98;;;13.30;99.90;;;;;;4826575;29;20033;-85
2022/05/22 02:58:30;;;;;;;2.63;1.23;;;13.30;99.90;;;;;;4839826;29;20460;-85
2022/05/22 03:00:56;;;;;;;4.05;1.30;;;13.30;99.90;;;;;;4841457;29;20504;-85
2022/05/22 03:03:22;;;;;;;3.83;1.35;;;13.30;99.90;;;;;;4841556;29;20030;-85
2022/05/22 03:08:35;;;;;;;2.53;1.10;;;13.20;99.90;;;;;;4827811;29;20094;-86
2022/05/22 03:11:06;;;;;;;3.42;1.20;;;13.20;99.90;;;;;;4843002;29;20030;-85
2022/05/22 03:13:32;;;;;;;3.10;0.93;;;13.20;99.90;;;;;;4839906;29;20563;-85
2022/05/22 03:15:58;;;;;;;2.20;1.00;;;13.20;99.90;;;;;;4841870;29;20495;-85
2022/05/22 03:18:24;;;;;;;1.70;0.90;;;13.10;99.90;;;;;;4841416;29;20033;-85
2022/05/22 03:20:49;;;;;;;2.72;1.30;;;13.10;99.90;;;;;;4843885;24;20069;-88
2022/05/22 03:23:16;;;;;;;2.40;1.17;;;13.00;99.90;;;;;;4840474;29;20087;-86
2022/05/22 03:25:46;;;;;;;3.00;0.80;;;13.00;99.90;;;;;;4828191;29;20276;-87
2022/05/22 03:28:13;;;;;;;2.72;1.20;;;13.00;99.90;;;;;;4826683;29;20051;-87
2022/05/22 03:30:39;;;;;;;2.25;0.90;;;13.10;99.90;;;;;;4839644;29;20036;-86
2022/05/22 03:33:05;;;;;;;2.42;0.80;;;12.90;99.90;;;;;;4863313;29;20033;-86
2022/05/22 03:35:33;;;;;;;1.92;0.80;;;12.90;99.90;;;;;;4863421;29;20033;-86
2022/05/22 03:38:06;;;;;;;1.95;1.20;;;12.90;99.90;;;;;;4865713;29;20082;-86
2022/05/22 03:40:32;;;;;;;2.50;0.70;;;12.90;99.90;;;;;;4842344;29;20050;-86
2022/05/22 03:43:00;;;;;;;2.83;1.00;;;12.90;99.90;;;;;;4830679;29;20034;-85
2022/05/22 03:45:25;;;;;;;2.25;1.27;;;12.80;99.90;;;;;;4832904;29;20033;-86
2022/05/22 03:47:55;;;;;;;2.10;0.90;;;12.80;99.90;;;;;;4831161;29;20066;-86
2022/05/22 03:50:24;;;;;;;2.25;0.85;;;12.70;99.90;;;;;;4849136;29;20061;-87
2022/05/22 03:52:51;;;;;;;1.65;0.80;;;12.80;99.90;;;;;;4848876;29;20129;-87
2022/05/22 03:55:18;;;;;;;2.60;1.20;;;12.70;99.90;;;;;;4848437;29;20036;-87
2022/05/22 03:57:47;;;;;;;4.72;1.73;;;12.70;99.90;;;;;;4849125;29;20030;-86
2022/05/22 04:00:14;;;;;;;3.45;1.00;;;12.70;99.90;;;;;;4844728;29;20503;-86
2022/05/22 04:02:40;;;;;;;2.30;1.10;;;12.70;99.90;;;;;;4844273;29;20124;-86
2022/05/22 04:05:08;;;;;;;1.65;0.80;;;12.70;99.90;;;;;;4843482;29;20135;-86
2022/05/22 04:07:42;;;;;;;2.78;1.23;;;12.70;99.90;;;;;;4844095;29;20026;-86
2022/05/22 04:10:08;;;;;;;3.30;1.17;;;12.70;99.90;;;;;;4843648;29;20559;-87
2022/05/22 04:12:35;;;;;;;2.05;0.90;;;12.70;99.90;;;;;;4843308;29;20034;-87
2022/05/22 04:15:02;;;;;;;2.58;0.98;;;12.70;99.90;;;;;;4840027;29;20034;-87
2022/05/22 04:17:27;;;;;;;2.58;1.30;;;12.70;99.90;;;;;;4833237;29;20040;-87
2022/05/22 04:19:53;;;;;;;2.65;1.08;;;12.70;99.90;;;;;;4826268;29;20026;-86
2022/05/22 04:22:21;;;;;;;2.35;0.93;;;12.80;99.90;;;;;;4840280;29;20029;-87
2022/05/22 04:27:31;;;;;;;2.25;0.95;;;12.80;99.90;;;;;;4825097;29;20083;-86
2022/05/22 04:29:56;;;;;;;2.33;0.90;;;12.90;99.90;;;;;;4825803;29;20031;-87
2022/05/22 04:32:22;;;;;;;1.50;0.82;;;12.90;99.90;;;;;;4825422;29;20604;-87
2022/05/22 04:34:48;;;;;;;2.45;1.17;;;12.90;99.90;;;;;;4824742;29;20046;-88
2022/05/22 04:37:14;;;;;;;3.63;1.00;;;12.90;99.90;;;;;;4825161;29;20067;-86
2022/05/22 04:39:39;;;;;;;2.67;1.13;;;12.90;99.90;;;;;;4839618;29;20514;-86
2022/05/22 04:42:05;;;;;;;2.97;1.02;;;12.90;99.90;;;;;;4836320;29;20030;-87
2022/05/22 04:44:34;;;;;;;2.70;1.00;;;12.90;99.90;;;;;;4842762;29;20164;-87
2022/05/22 04:47:00;;;;;;;1.95;0.90;;;12.60;99.90;;;;;;4841913;29;20030;-87
2022/05/22 04:49:26;;;;;;;2.72;1.02;;;12.60;99.90;;;;;;4841883;29;20412;-86
2022/05/22 04:51:51;;;;;;;3.33;1.30;;;12.70;99.90;;;;;;4842528;29;20034;-86
2022/05/22 04:54:17;;;;;;;6.93;1.00;;;12.60;99.90;;;;;;4843305;29;20069;-86
2022/05/22 04:56:43;;;;;;;1.90;1.02;;;12.80;99.90;;;;;;4842271;29;20484;-86
2022/05/22 04:59:09;;;;;;;3.10;1.25;;;12.90;99.90;;;;;;4842014;29;20030;-87
2022/05/22 05:01:34;;;;;;;2.72;1.10;;;13.10;99.90;;;;;;4829478;29;20145;-86
2022/05/22 05:04:00;;;;;;;2.80;0.93;;;13.20;99.90;;;;;;4838233;29;20094;-87
2022/05/22 05:06:30;;;;;;;2.13;1.00;;;13.40;99.90;;;;;;4824204;29;20113;-87
2022/05/22 05:08:56;;;;;;;2.92;1.00;;;13.50;99.90;;;;;;4832893;29;20045;-86
2022/05/22 05:11:21;;;;;;;1.92;0.95;;;13.70;99.90;;;;;;4831868;29;20050;-87
2022/05/22 05:13:47;;;;;;;2.60;1.50;;;13.80;99.90;;;;;;4832307;29;20061;-86
2022/05/22 05:16:13;;;;;;;2.30;1.10;;;13.80;99.90;;;;;;4832385;29;20038;-87
2022/05/22 05:18:40;;;;;;;2.28;0.98;;;14.00;99.90;;;;;;4842410;29;20120;-87
2022/05/22 05:21:09;;;;;;;2.28;1.13;;;14.10;99.90;;;;;;4837986;29;20090;-87
2022/05/22 05:23:36;;;;;;;3.30;1.13;;;14.10;99.90;;;;;;4841784;29;20068;-87
2022/05/22 05:26:02;;;;;;;1.67;0.80;;;14.20;99.90;;;;;;4843960;29;20064;-87
2022/05/22 05:28:29;;;;;;;3.42;1.45;;;14.20;99.90;;;;;;4842957;29;20061;-88
2022/05/22 05:30:55;;;;;;;2.38;1.02;;;14.20;99.90;;;;;;4840006;29;20038;-87
2022/05/22 05:33:20;;;;;;;1.92;1.05;;;14.30;99.90;;;;;;4840676;29;20150;-87
2022/05/22 05:35:46;;;;;;;1.77;0.88;;;14.40;99.90;;;;;;4844449;29;20030;-87
2022/05/22 05:38:12;;;;;;;3.58;1.13;;;14.50;99.90;;;;;;4842165;29;20029;-87
2022/05/22 05:40:41;;;;;;;3.17;1.25;;;14.60;99.90;;;;;;4843861;29;20121;-89
2022/05/22 05:43:07;;;;;;;2.80;1.38;;;14.80;99.90;;;;;;4843991;29;20018;-89
2022/05/22 05:45:36;;;;;;;3.08;1.40;;;14.70;99.90;;;;;;4840147;29;20399;-87
2022/05/22 05:48:03;;;;;;;2.28;1.02;;;14.80;99.90;;;;;;4841383;29;20072;-87
2022/05/22 05:50:29;;;;;;;3.63;1.27;;;14.90;99.90;;;;;;4836828;29;20502;-87
2022/05/22 05:53:01;;;;;;;3.95;1.40;;;14.90;99.90;;;;;;4840460;29;20471;-87
2022/05/22 05:55:27;;;;;;;3.33;1.30;;;15.00;99.90;;;;;;4839108;29;20030;-87
2022/05/22 05:57:53;;;;;;;2.85;1.15;;;15.10;99.90;;;;;;4853902;29;20098;-87
2022/05/22 06:00:21;;;;;;;2.75;1.38;;;15.10;99.90;;;;;;4841213;29;20073;-87
2022/05/22 06:02:47;;;;;;;2.67;1.05;;;15.20;99.90;;;;;;4841524;29;20109;-86
2022/05/22 06:05:15;;;;;;;4.60;1.10;;;15.20;99.90;;;;;;4839473;29;20034;-86
2022/05/22 06:07:51;;;;;;;2.35;1.10;;;15.30;99.90;;;;;;4830051;29;20466;-87
2022/05/22 06:10:17;;;;;;;1.85;1.00;;;15.20;99.90;;;;;;4827149;29;20045;-86
2022/05/22 06:12:46;;;;;;;2.13;0.80;;;15.30;99.90;;;;;;4837727;29;20552;-87
2022/05/22 06:15:14;;;;;;;1.75;0.73;;;15.40;99.90;;;;;;4839717;29;20038;-87
2022/05/22 06:17:46;;;;;;;2.35;0.77;;;15.30;99.90;;;;;;4836162;29;20053;-86
2022/05/22 06:20:17;;;;;;;2.38;0.77;;;15.50;99.90;;;;;;4825544;29;20041;-87
2022/05/22 06:22:46;;;;;;;3.10;0.95;;;15.50;99.90;;;;;;4821841;29;20046;-87
2022/05/22 06:25:15;;;;;;;1.65;0.77;;;15.70;99.90;;;;;;4821807;29;20035;-86
2022/05/22 06:27:43;;;;;;;1.13;0.50;;;15.90;99.90;;;;;;4833316;29;20034;-86
2022/05/22 06:30:12;;;;;;;1.42;0.60;;;16.20;99.90;;;;;;4822735;29;20053;-86
2022/05/22 06:32:41;;;;;;;2.47;0.88;;;16.30;99.90;;;;;;4836524;29;20542;-86
2022/05/22 06:35:10;;;;;;;1.50;0.60;;;16.30;99.90;;;;;;4849181;29;20112;-86
2022/05/22 06:37:36;;;;;;;2.78;0.95;;;16.30;99.90;;;;;;4840040;29;20039;-86
2022/05/22 06:40:03;;;;;;;1.98;0.77;;;16.40;99.90;;;;;;4839665;29;20030;-87
2022/05/22 06:42:32;;;;;;;3.13;0.68;;;16.50;99.90;;;;;;4832149;29;20026;-86
2022/05/22 06:45:24;;;;;;;1.80;0.65;;;16.70;99.90;;;;;;4840040;29;20113;-87
2022/05/22 06:47:50;;;;;;;;;;;16.80;99.90;;;;;;4826658;29;20133;-86
2022/05/22 06:50:19;;;;;;;2.35;0.98;;;16.80;99.90;;;;;;4831621;29;19964;-87
2022/05/22 06:52:45;;;;;;;1.67;0.63;;;16.70;99.90;;;;;;4833509;29;20037;-86
2022/05/22 06:55:12;;;;;;;1.60;0.60;;;16.90;99.90;;;;;;4839553;29;20105;-87
2022/05/22 06:57:38;;;;;;;1.92;0.63;;;17.10;99.90;;;;;;4836220;29;20088;-86
2022/05/22 07:00:07;;;;;;;1.48;0.60;;;17.20;99.90;;;;;;4836345;29;20372;-86
2022/05/22 07:02:35;;;;;;;1.10;0.50;;;17.30;99.90;;;;;;4839947;29;20476;-87
2022/05/22 07:05:01;;;;;;;1.60;0.60;;;17.30;99.90;;;;;;4829673;29;20056;-87
2022/05/22 07:07:27;;;;;;;1.60;0.60;;;17.40;99.90;;;;;;4821567;29;20491;-86
2022/05/22 07:09:53;;;;;;;1.70;0.55;;;17.60;99.90;;;;;;4820922;29;20034;-85
2022/05/22 07:12:19;;;;;;;2.00;0.82;;;17.80;99.90;;;;;;4844944;29;20522;-87
2022/05/22 07:14:48;;;;;;;2.00;0.38;;;18.10;99.90;;;;;;4826878;29;20511;-86
2022/05/22 07:17:15;;;;;;;2.90;0.60;;;18.30;99.90;;;;;;4821899;29;20022;-87
2022/05/22 07:19:42;;;;;;;1.15;0.50;;;18.50;99.90;;;;;;4821313;29;20065;-86
2022/05/22 07:22:08;;;;;;;2.28;0.60;;;18.40;99.90;;;;;;4832800;29;20044;-86
2022/05/22 07:24:35;;;;;;;0.95;0.43;;;18.60;99.90;;;;;;4829310;29;20035;-87
2022/05/22 07:27:02;;;;;;;3.10;0.70;;;18.90;99.90;;;;;;4820804;29;20038;-86
2022/05/22 07:29:29;;;;;;;2.67;0.68;;;19.00;99.90;;;;;;4827881;29;20046;-86
2022/05/22 07:31:57;;;;;;;1.02;0.60;;;19.20;99.90;;;;;;4836298;29;20125;-86
2022/05/22 07:34:27;;;;;;;2.53;0.50;;;19.30;99.90;;;;;;4822612;29;20481;-87
2022/05/22 07:36:57;;;;;;;0.95;0.40;;;19.30;99.90;;;;;;4822399;29;20033;-87
2022/05/22 07:39:29;;;;;;;2.40;0.70;;;19.50;99.90;;;;;;4839098;29;20034;-86
2022/05/22 07:41:55;;;;;;;1.70;0.82;;;19.40;99.80;;;;;;4834273;29;20291;-86
2022/05/22 07:44:21;;;;;;;1.35;0.50;;;19.60;99.90;;;;;;4840396;29;20048;-86
2022/05/22 07:46:47;;;;;;;1.52;0.68;;;19.70;99.90;;;;;;4825385;29;20034;-87
2022/05/22 07:50:16;;;;;;;3.00;0.55;;;19.80;99.50;;;;;;4824104;29;20191;-86
2022/05/22 07:52:08;;;;;;;1.85;0.68;;;19.90;99.60;;;;;;4838555;29;20037;-87
2022/05/22 07:54:39;;;;;;;2.35;0.70;;;19.90;99.00;;;;;;4843642;29;20151;-87
2022/05/22 07:57:06;;;;;;;1.10;0.50;;;19.90;99.00;;;;;;4842065;29;20163;-86
2022/05/22 07:59:38;;;;;;;2.20;0.50;;;19.90;98.90;;;;;;4842490;29;20490;-87
2022/05/22 08:02:07;;;;;;;1.42;0.43;;;20.10;98.80;;;;;;4840721;29;20527;-87
2022/05/22 08:04:32;;;;;;;1.63;0.45;;;20.30;98.60;;;;;;4834872;29;20037;-87
2022/05/22 08:07:03;;;;;;;1.10;0.52;;;20.40;97.50;;;;;;4841159;29;20034;-87
2022/05/22 08:09:28;;;;;;;1.23;0.57;;;20.50;97.60;;;;;;4834805;29;20064;-87
2022/05/22 08:11:54;;;;;;;1.95;0.40;;;20.70;97.60;;;;;;4841315;29;20029;-88
2022/05/22 08:14:19;;;;;;;2.00;0.50;;;20.80;97.50;;;;;;4836498;29;20384;-87
2022/05/22 08:16:48;;;;;;;1.75;0.50;;;21.10;96.80;;;;;;4836555;29;20026;-88
2022/05/22 08:19:15;;;;;;;1.17;0.40;;;21.10;96.90;;;;;;4838447;29;20030;-87
2022/05/22 08:21:43;;;;;;;1.00;0.40;;;21.30;96.70;;;;;;4838488;29;20116;-87
2022/05/22 08:24:17;;;;;;;1.58;0.40;;;21.30;96.30;;;;;;4838747;29;20106;-88
2022/05/22 08:26:47;;;;;;;0.80;0.30;;;21.50;96.00;;;;;;4838999;29;20037;-88
2022/05/22 08:29:16;;;;;;;1.10;0.30;;;21.70;95.60;;;;;;4842591;29;20041;-87
2022/05/22 08:31:44;;;;;;;1.02;0.50;;;21.80;94.80;;;;;;4838935;29;20106;-87
2022/05/22 08:34:13;;;;;;;5.40;1.23;;;21.80;94.60;;;;;;4840734;29;20030;-88
2022/05/22 08:36:42;;;;;;;1.67;0.40;;;21.60;94.80;;;;;;4837556;29;20093;-88
2022/05/22 08:39:08;;;;;;;2.00;0.30;;;21.40;94.50;;;;;;4842051;29;20555;-89
2022/05/22 08:41:41;;;;;;;2.03;0.50;;;21.10;95.00;;;;;;4842427;29;20117;-90
2022/05/22 08:44:19;;;;;;;2.80;0.30;;;21.20;95.40;;;;;;4842283;29;20033;-88
2022/05/22 08:47:22;;;;;;;1.05;0.30;;;21.30;95.30;;;;;;4841982;29;20038;-88
2022/05/22 08:50:09;;;;;;;1.55;0.47;;;21.50;95.40;;;;;;4841699;29;20392;-90
2022/05/22 08:52:44;;;;;;;1.77;0.38;;;21.40;95.20;;;;;;4832940;29;20034;-89
2022/05/22 08:55:15;;;;;;;0.30;0.20;;;21.70;95.30;;;;;;4833406;29;20026;-88
2022/05/22 09:00:41;;;;;;;0.82;0.30;;;22.30;94.20;;;;;;4842066;29;20072;-87
2022/05/22 09:03:25;;;;;;;1.40;0.40;;;22.40;93.70;;;;;;4839125;29;20029;-86
2022/05/22 09:05:56;;;;;;;1.83;0.40;;;22.60;93.10;;;;;;4840071;29;20559;-87
2022/05/22 09:08:45;;;;;;;1.17;0.40;;;22.50;93.20;;;;;;4840905;29;20065;-88
2022/05/22 09:11:42;;;;;;;0.95;0.40;;;22.60;93.70;;;;;;4837935;29;20050;-88
2022/05/22 09:14:11;;;;;;;1.95;0.38;;;22.90;93.50;;;;;;4840610;29;20026;-88
2022/05/22 09:16:45;;;;;;;0.80;0.30;;;23.20;93.10;;;;;;4835236;29;20083;-88
2022/05/22 09:19:37;;;;;;;0.90;0.30;;;23.70;92.70;;;;;;4838697;29;20026;-87
2022/05/22 09:22:15;;;;;;;;;;;23.40;91.50;;;;;;4841465;29;20113;-89
2022/05/22 09:25:08;;;;;;;1.48;0.43;;;23.50;91.10;;;;;;4835301;29;19908;-87
2022/05/22 09:27:54;;;;;;;0.90;0.45;;;23.70;91.00;;;;;;4841433;29;20030;-88
2022/05/22 09:30:54;;;;;;;1.63;0.45;;;23.30;91.30;;;;;;4841472;29;20033;-88
2022/05/22 09:33:50;;;;;;;2.75;0.70;;;23.40;90.90;;;;;;4841605;29;20045;-88
2022/05/22 09:36:26;;;;;;;2.38;0.47;;;23.50;90.80;;;;;;4843270;29;20134;-87
2022/05/22 09:39:23;;;;;;;2.08;0.52;;;23.90;90.60;;;;;;4843514;29;20060;-88
2022/05/22 09:42:00;;;;;;;2.03;0.40;;;23.90;90.50;;;;;;4845896;29;20034;-88
2022/05/22 09:44:38;;;;;;;0.47;0.20;;;24.20;90.10;;;;;;4862848;29;20029;-88
2022/05/22 09:47:15;;;;;;;2.15;0.40;;;24.50;90.00;;;;;;4861108;29;20178;-87
2022/05/22 09:50:03;;;;;;;1.45;0.40;;;24.90;88.90;;;;;;4860892;29;20029;-88
2022/05/22 09:53:09;;;;;;;1.45;0.40;;;25.10;89.40;;;;;;4855271;29;20065;-89
2022/05/22 09:55:51;;;;;;;1.50;0.45;;;25.00;87.20;;;;;;4839751;29;20041;-88
2022/05/22 09:59:07;;;;;;;;;;;;;;;;;;;;;
2022/05/22 10:01:48;;;;;;;0.95;0.40;;;24.70;87.70;;;;;;4838423;29;20029;-88
2022/05/22 10:05:02;;;;;;;;;;;;;;;;;;;;;
2022/05/22 10:08:01;;;;;;;0.70;0.30;;;25.10;84.70;;;;;;4836192;29;20034;-88
2022/05/22 10:10:32;;;;;;;0.55;0.30;;;25.30;87.70;;;;;;4843103;29;20040;-87
2022/05/22 10:13:11;;;;;;;1.55;0.35;;;25.40;85.30;;;;;;4839780;29;20116;-88
2022/05/22 10:15:48;;;;;;;1.00;0.40;;;25.20;85.30;;;;;;4838739;29;20034;-88
2022/05/22 10:18:36;;;;;;;1.40;0.30;;;24.90;83.40;;;;;;4839171;29;20114;-89
2022/05/22 10:21:25;;;;;;;0.70;0.40;;;24.90;84.00;;;;;;4827028;29;20188;-88
2022/05/22 10:24:22;;;;;;;1.73;0.30;;;25.10;84.00;;;;;;4853291;29;20120;-88
2022/05/22 10:27:22;;;;;;;0.98;0.40;;;25.10;82.40;;;;;;4832120;29;20056;-86
2022/05/22 10:30:41;;;;;;;0.57;0.20;;;25.10;83.00;;;;;;4853039;29;20029;-88
2022/05/22 10:33:33;;;;;;;2.10;0.30;;;25.50;81.70;;;;;;4833449;29;20045;-89
2022/05/22 10:36:19;;;;;;;1.17;0.30;;;25.90;81.10;;;;;;4851211;29;20116;-87
2022/05/22 10:39:03;;;;;;;1.00;0.30;;;25.80;80.40;;;;;;4831031;29;20026;-87
2022/05/22 10:44:25;;;;;;;0.40;0.30;;;25.30;80.30;;;;;;4833461;29;20053;-87
2022/05/22 10:47:02;;;;;;;0.80;0.30;;;25.30;80.80;;;;;;4828785;29;20433;-88
2022/05/22 10:49:40;;;;;;;1.48;0.45;;;25.50;82.70;;;;;;4831000;29;20038;-89
2022/05/22 10:52:13;;;;;;;1.65;0.30;;;25.50;81.00;;;;;;4827084;29;20027;-89
2022/05/22 10:54:48;;;;;;;0.80;0.30;;;25.80;82.00;;;;;;4823033;29;20038;-89
2022/05/22 10:57:21;;;;;;;0.75;0.30;;;25.60;79.40;;;;;;4821964;29;20031;-89
2022/05/22 10:59:47;;;;;;;1.10;0.40;;;25.90;80.40;;;;;;4835914;29;20030;-89
2022/05/22 11:02:31;;;;;;;0.60;0.20;;;25.80;78.70;;;;;;4836427;29;20076;-90
2022/05/22 11:05:00;;;;;;;1.25;0.35;;;25.70;79.80;;;;;;4822324;29;20042;-88
2022/05/22 11:07:33;;;;;;;1.00;0.35;;;25.80;79.20;;;;;;4837252;29;20090;-89
2022/05/22 11:10:25;;;;;;;1.40;0.30;;;26.10;78.20;;;;;;4839945;29;20034;-90
2022/05/22 11:13:11;;;;;;;1.15;0.20;;;26.50;78.40;;;;;;4835779;29;20045;-88
2022/05/22 11:15:42;;;;;;;0.50;0.20;;;27.10;77.40;;;;;;4849705;29;20776;-89
2022/05/22 11:18:19;;;;;;;0.70;0.30;;;27.30;76.50;;;;;;4843613;29;20034;-89
2022/05/22 11:21:07;;;;;;;0.90;0.25;;;27.30;75.60;;;;;;4838094;29;20026;-89
2022/05/22 11:23:42;;;;;;;1.20;0.32;;;27.40;75.60;;;;;;4838893;29;20041;-89
2022/05/22 11:26:34;;;;;;;0.90;0.30;;;27.30;75.30;;;;;;4840395;29;20030;-89
2022/05/22 11:29:35;;;;;;;2.38;0.57;;;27.40;74.10;;;;;;4842588;29;20094;-89
2022/05/22 11:32:20;;;;;;;0.90;0.40;;;27.60;75.10;;;;;;4840093;29;20062;-90
2022/05/22 11:35:23;;;;;;;0.70;0.30;;;27.50;73.20;;;;;;4855897;29;20399;-90
2022/05/22 11:38:24;;;;;;;2.05;0.30;;;27.60;72.80;;;;;;4839609;29;20038;-89
2022/05/22 11:41:26;;;;;;;0.70;0.30;;;28.00;72.40;;;;;;4852878;29;20018;-89
2022/05/22 11:44:15;;;;;;;0.77;0.30;;;28.00;71.80;;;;;;4863749;29;20148;-90
2022/05/22 11:47:10;;;;;;;1.95;0.28;;;28.20;70.60;;;;;;4842583;29;20037;-91
2022/05/22 11:50:20;;;;;;;1.30;0.40;;;28.20;69.70;;;;;;4857718;29;20556;-90
2022/05/22 11:53:03;;;;;;;0.88;0.30;;;28.00;69.00;;;;;;4838760;29;20046;-89
2022/05/22 11:55:36;;;;;;;0.43;0.20;;;28.20;69.80;;;;;;4839493;29;20226;-90
2022/05/22 11:58:34;;;;;;;1.25;0.22;;;28.30;69.00;;;;;;4842997;29;20046;-90
2022/05/22 12:01:40;;;;;;;2.50;0.30;;;28.60;70.20;;;;;;4838801;29;20512;-94
2022/05/22 12:07:55;;;;;;;0.98;0.38;;;29.10;66.20;;;;;;4866353;29;20028;-95
2022/05/22 12:16:19;;;;;;;;;;;;;;;;;;;;;
2022/05/22 12:19:44;;;;;;;0.77;0.28;;;28.90;67.10;;;;;;4872932;29;20052;-93
2022/05/22 12:26:13;;;;;;;1.25;0.30;;;29.40;65.40;;;;;;4834618;29;20037;-94
2022/05/22 12:29:31;;;;;;;1.27;0.25;;;29.40;63.80;;;;;;4833878;29;20030;-94
2022/05/22 12:32:34;;;;;;;0.77;0.35;;;29.40;63.70;;;;;;4817198;29;20042;-93
2022/05/22 12:35:22;;;;;;;1.08;0.30;;;29.00;63.40;;;;;;4770176;29;20075;-93
2022/05/22 12:38:12;;;;;;;1.00;0.40;;;28.90;64.70;;;;;;4837031;29;20075;-93
2022/05/22 12:43:38;;;;;;;;;;;;;;;;;;;;;
2022/05/22 12:46:20;;;;;;;1.85;0.40;;;28.90;63.20;;;;;;4858032;29;19955;-91
2022/05/22 12:53:11;;;;;;;0.68;0.20;;;28.90;63.30;;;;;;4857638;29;20042;-94
2022/05/22 13:06:57;;;;;;;;;;;;;;;;;;;;;
2022/05/22 13:13:50;;;;;;;0.93;0.30;;;29.10;61.80;;;;;;4861728;24;20065;-94
2022/05/22 13:16:49;;;;;;;1.10;0.40;;;29.40;61.60;;;;;;4852961;29;20043;-94
2022/05/22 13:26:49;;;;;;;0.75;0.22;;;29.40;61.60;;;;;;4797054;30;20084;-94
2022/05/22 13:29:22;;;;;;;0.73;0.30;;;30.00;60.80;;;;;;4797045;29;20092;-94
2022/05/22 13:36:25;;;;;;;0.77;0.35;;;30.00;60.40;;;;;;4816978;29;20051;-94
2022/05/22 13:43:00;;;;;;;1.10;0.28;;;30.20;58.60;;;;;;5207988;23;20092;-93
2022/05/22 13:46:20;;;;;;;2.08;0.32;;;30.10;58.50;;;;;;4851384;29;20042;-94
2022/05/22 13:49:28;;;;;;;1.00;0.30;;;30.00;59.00;;;;;;4848680;29;20046;-94
2022/05/22 13:52:46;;;;;;;0.68;0.20;;;30.10;58.40;;;;;;4848342;29;20098;-93
2022/05/22 13:55:53;;;;;;;0.80;0.28;;;30.30;58.00;;;;;;4846860;29;20436;-94
2022/05/22 13:58:46;;;;;;;0.47;0.30;;;30.00;57.50;;;;;;4843332;29;20400;-94
2022/05/22 14:06:38;;;;;;;1.48;0.35;;;29.40;58.50;;;;;;4832264;23;20378;-93
2022/05/22 14:10:12;;;;;;;0.68;0.20;;;29.20;59.70;;;;;;4831720;29;20035;-93
2022/05/22 14:16:42;;;;;;;0.82;0.20;;;29.50;60.00;;;;;;4782544;30;20084;-91
2022/05/22 14:19:14;;;;;;;1.35;0.38;;;29.70;59.10;;;;;;4797321;29;20034;-93
2022/05/22 14:21:54;;;;;;;2.33;0.43;;;29.80;59.10;;;;;;4806449;29;20042;-93
2022/05/22 14:28:27;;;;;;;0.55;0.30;;;29.00;59.20;;;;;;4781900;30;20067;-93
2022/05/22 14:31:40;;;;;;;0.57;0.20;;;28.60;59.60;;;;;;4781873;29;20111;-92
2022/05/22 14:34:40;;;;;;;1.85;0.43;;;28.50;60.50;;;;;;4793561;29;20039;-93
2022/05/22 14:37:16;;;;;;;1.50;0.20;;;28.60;60.70;;;;;;4764331;30;20040;-93
2022/05/22 14:58:59;;;;;;;2.08;0.40;;;29.80;57.50;;;;;;4863219;29;20446;-94
2022/05/22 15:01:32;;;;;;;1.10;0.30;;;29.00;57.60;;;;;;4860681;29;20094;-92
2022/05/22 15:04:03;;;;;;;0.60;0.30;;;29.10;58.20;;;;;;4868433;29;20124;-93
2022/05/22 15:06:32;;;;;;;2.03;0.30;;;29.00;58.10;;;;;;4863840;29;20025;-93
2022/05/22 15:09:05;;;;;;;1.75;0.30;;;28.70;58.80;;;;;;4862845;29;20033;-94
2022/05/22 15:12:00;;;;;;;0.65;0.30;;;28.40;59.30;;;;;;4846592;29;20034;-93